sensor_id;sensor_type;location;lat;lon;timestamp;P1;durP1;ratioP1;P2;durP2;ratioP2
3811;SDS011;1921;49.368;11.068;2022-09-27T00:00:35;50.43;;;45.47;;
3811;SDS011;1921;49.368;11.068;2022-09-27T00:03:01;50.70;;;45.60;;
3811;SDS011;1921;49.368;11.068;2022-09-27T00:05:27;51.00;;;46.00;;
3811;SDS011;1921;49.368;11.068;2022-09-27T00:07:53;51.97;;;46.70;;
3811;SDS011;1921;49.368;11.068;2022-09-27T00:10:20;51.23;;;45.90;;
3811;SDS011;1921;49.368;11.068;2022-09-27T00:12:46;50.40;;;45.40;;
3811;SDS011;1921;49.368;11.068;2022-09-27T00:15:12;49.23;;;44.43;;
3811;SDS011;1921;49.368;11.068;2022-09-27T00:17:38;52.00;;;46.03;;
3811;SDS011;1921;49.368;11.068;2022-09-27T00:20:05;50.97;;;45.87;;
3811;SDS011;1921;49.368;11.068;2022-09-27T00:22:31;50.93;;;45.90;;
3811;SDS011;1921;49.368;11.068;2022-09-27T00:24:57;50.63;;;45.67;;
3811;SDS011;1921;49.368;11.068;2022-09-27T00:27:24;50.90;;;45.90;;
3811;SDS011;1921;49.368;11.068;2022-09-27T00:29:51;50.73;;;45.70;;
3811;SDS011;1921;49.368;11.068;2022-09-27T00:32:17;51.03;;;46.03;;
3811;SDS011;1921;49.368;11.068;2022-09-27T00:34:43;51.47;;;46.10;;
3811;SDS011;1921;49.368;11.068;2022-09-27T00:37:10;50.87;;;45.80;;
3811;SDS011;1921;49.368;11.068;2022-09-27T00:39:36;50.13;;;45.23;;
3811;SDS011;1921;49.368;11.068;2022-09-27T00:42:04;50.83;;;45.83;;
3811;SDS011;1921;49.368;11.068;2022-09-27T00:50:08;50.13;;;45.23;;
3811;SDS011;1921;49.368;11.068;2022-09-27T00:56:03;49.97;;;45.17;;
3811;SDS011;1921;49.368;11.068;2022-09-27T00:58:37;50.27;;;45.37;;
3811;SDS011;1921;49.368;11.068;2022-09-27T01:01:09;50.57;;;45.47;;
3811;SDS011;1921;49.368;11.068;2022-09-27T01:03:53;49.90;;;45.00;;
3811;SDS011;1921;49.368;11.068;2022-09-27T01:06:32;50.30;;;45.30;;
3811;SDS011;1921;49.368;11.068;2022-09-27T01:08:59;49.77;;;44.97;;
3811;SDS011;1921;49.368;11.068;2022-09-27T01:17:12;49.23;;;44.53;;
3811;SDS011;1921;49.368;11.068;2022-09-27T01:33:07;49.47;;;44.77;;
3811;SDS011;1921;49.368;11.068;2022-09-27T01:35:48;49.10;;;44.40;;
3811;SDS011;1921;49.368;11.068;2022-09-27T01:39:01;49.00;;;44.40;;
3811;SDS011;1921;49.368;11.068;2022-09-27T01:42:07;49.30;;;44.50;;
3811;SDS011;1921;49.368;11.068;2022-09-27T01:44:47;49.00;;;44.30;;
3811;SDS011;1921;49.368;11.068;2022-09-27T01:47:42;49.00;;;44.40;;
3811;SDS011;1921;49.368;11.068;2022-09-27T01:50:18;48.60;;;44.00;;
3811;SDS011;1921;49.368;11.068;2022-09-27T01:53:11;50.10;;;45.20;;
3811;SDS011;1921;49.368;11.068;2022-09-27T01:55:47;48.67;;;44.07;;
3811;SDS011;1921;49.368;11.068;2022-09-27T01:58:20;49.20;;;44.47;;
3811;SDS011;1921;49.368;11.068;2022-09-27T02:00:59;49.40;;;44.50;;
3811;SDS011;1921;49.368;11.068;2022-09-27T02:03:35;49.20;;;44.50;;
3811;SDS011;1921;49.368;11.068;2022-09-27T02:06:11;49.53;;;44.57;;
3811;SDS011;1921;49.368;11.068;2022-09-27T02:08:44;48.50;;;43.90;;
3811;SDS011;1921;49.368;11.068;2022-09-27T02:11:26;49.00;;;44.30;;
3811;SDS011;1921;49.368;11.068;2022-09-27T02:13:53;49.57;;;44.77;;
3811;SDS011;1921;49.368;11.068;2022-09-27T02:16:48;48.97;;;44.37;;
3811;SDS011;1921;49.368;11.068;2022-09-27T02:30:50;49.10;;;44.40;;
3811;SDS011;1921;49.368;11.068;2022-09-27T02:33:17;49.20;;;44.50;;
3811;SDS011;1921;49.368;11.068;2022-09-27T02:35:48;48.43;;;43.83;;
3811;SDS011;1921;49.368;11.068;2022-09-27T02:38:14;49.00;;;44.30;;
3811;SDS011;1921;49.368;11.068;2022-09-27T02:40:45;48.87;;;44.27;;
3811;SDS011;1921;49.368;11.068;2022-09-27T02:43:12;48.57;;;43.97;;
3811;SDS011;1921;49.368;11.068;2022-09-27T02:48:45;48.60;;;44.00;;
3811;SDS011;1921;49.368;11.068;2022-09-27T02:54:43;48.87;;;44.20;;
3811;SDS011;1921;49.368;11.068;2022-09-27T02:58:07;48.13;;;43.63;;
3811;SDS011;1921;49.368;11.068;2022-09-27T03:03:48;48.80;;;44.20;;
3811;SDS011;1921;49.368;11.068;2022-09-27T03:06:29;48.73;;;44.10;;
3811;SDS011;1921;49.368;11.068;2022-09-27T03:08:57;49.00;;;44.37;;
3811;SDS011;1921;49.368;11.068;2022-09-27T03:11:26;49.90;;;44.90;;
3811;SDS011;1921;49.368;11.068;2022-09-27T03:13:52;48.70;;;44.10;;
3811;SDS011;1921;49.368;11.068;2022-09-27T03:16:18;48.90;;;44.20;;
3811;SDS011;1921;49.368;11.068;2022-09-27T03:18:44;49.20;;;44.50;;
3811;SDS011;1921;49.368;11.068;2022-09-27T03:21:09;49.10;;;44.30;;
3811;SDS011;1921;49.368;11.068;2022-09-27T03:23:35;51.50;;;45.27;;
3811;SDS011;1921;49.368;11.068;2022-09-27T03:26:02;50.00;;;45.10;;
3811;SDS011;1921;49.368;11.068;2022-09-27T03:28:27;50.80;;;45.30;;
3811;SDS011;1921;49.368;11.068;2022-09-27T03:30:53;49.40;;;44.67;;
3811;SDS011;1921;49.368;11.068;2022-09-27T03:33:19;48.90;;;44.30;;
3811;SDS011;1921;49.368;11.068;2022-09-27T03:35:45;48.60;;;44.00;;
3811;SDS011;1921;49.368;11.068;2022-09-27T03:38:11;49.10;;;44.40;;
3811;SDS011;1921;49.368;11.068;2022-09-27T03:40:38;49.73;;;44.70;;
3811;SDS011;1921;49.368;11.068;2022-09-27T03:43:04;48.23;;;43.67;;
3811;SDS011;1921;49.368;11.068;2022-09-27T03:45:29;48.67;;;44.07;;
3811;SDS011;1921;49.368;11.068;2022-09-27T03:47:55;49.07;;;44.27;;
3811;SDS011;1921;49.368;11.068;2022-09-27T03:50:21;48.70;;;44.10;;
3811;SDS011;1921;49.368;11.068;2022-09-27T03:52:47;48.60;;;44.00;;
3811;SDS011;1921;49.368;11.068;2022-09-27T03:55:14;48.10;;;43.60;;
3811;SDS011;1921;49.368;11.068;2022-09-27T03:57:43;49.00;;;44.20;;
3811;SDS011;1921;49.368;11.068;2022-09-27T04:00:11;49.40;;;44.60;;
3811;SDS011;1921;49.368;11.068;2022-09-27T04:02:37;49.90;;;45.07;;
3811;SDS011;1921;49.368;11.068;2022-09-27T04:05:08;48.50;;;43.90;;
3811;SDS011;1921;49.368;11.068;2022-09-27T04:07:34;49.33;;;44.63;;
3811;SDS011;1921;49.368;11.068;2022-09-27T04:10:01;48.90;;;44.20;;
3811;SDS011;1921;49.368;11.068;2022-09-27T04:12:28;48.97;;;44.37;;
3811;SDS011;1921;49.368;11.068;2022-09-27T04:14:54;48.90;;;44.30;;
3811;SDS011;1921;49.368;11.068;2022-09-27T04:17:20;48.53;;;43.87;;
3811;SDS011;1921;49.368;11.068;2022-09-27T04:19:46;48.77;;;44.07;;
3811;SDS011;1921;49.368;11.068;2022-09-27T04:22:11;48.43;;;43.83;;
3811;SDS011;1921;49.368;11.068;2022-09-27T04:24:37;48.77;;;44.17;;
3811;SDS011;1921;49.368;11.068;2022-09-27T04:27:03;48.83;;;44.23;;
3811;SDS011;1921;49.368;11.068;2022-09-27T04:29:29;49.23;;;44.53;;
3811;SDS011;1921;49.368;11.068;2022-09-27T04:31:56;49.03;;;44.23;;
3811;SDS011;1921;49.368;11.068;2022-09-27T04:34:22;48.27;;;43.73;;
3811;SDS011;1921;49.368;11.068;2022-09-27T04:37:07;49.17;;;44.53;;
3811;SDS011;1921;49.368;11.068;2022-09-27T04:39:36;48.63;;;43.97;;
3811;SDS011;1921;49.368;11.068;2022-09-27T04:42:03;48.30;;;43.70;;
3811;SDS011;1921;49.368;11.068;2022-09-27T04:44:30;48.70;;;44.10;;
3811;SDS011;1921;49.368;11.068;2022-09-27T04:46:55;49.07;;;44.37;;
3811;SDS011;1921;49.368;11.068;2022-09-27T04:49:22;48.90;;;44.30;;
3811;SDS011;1921;49.368;11.068;2022-09-27T04:51:48;48.70;;;44.00;;
3811;SDS011;1921;49.368;11.068;2022-09-27T04:54:14;48.60;;;44.00;;
3811;SDS011;1921;49.368;11.068;2022-09-27T04:56:40;48.40;;;43.83;;
3811;SDS011;1921;49.368;11.068;2022-09-27T04:59:07;48.30;;;43.73;;
3811;SDS011;1921;49.368;11.068;2022-09-27T05:01:33;48.70;;;44.10;;
3811;SDS011;1921;49.368;11.068;2022-09-27T05:03:59;48.50;;;43.93;;
3811;SDS011;1921;49.368;11.068;2022-09-27T05:06:25;48.37;;;43.87;;
3811;SDS011;1921;49.368;11.068;2022-09-27T05:08:51;47.97;;;43.50;;
3811;SDS011;1921;49.368;11.068;2022-09-27T05:11:16;47.90;;;43.47;;
3811;SDS011;1921;49.368;11.068;2022-09-27T05:13:42;49.77;;;44.23;;
3811;SDS011;1921;49.368;11.068;2022-09-27T05:16:08;48.10;;;43.60;;
3811;SDS011;1921;49.368;11.068;2022-09-27T05:18:33;48.23;;;43.63;;
3811;SDS011;1921;49.368;11.068;2022-09-27T05:20:59;48.23;;;43.80;;
3811;SDS011;1921;49.368;11.068;2022-09-27T05:23:25;47.97;;;43.53;;
3811;SDS011;1921;49.368;11.068;2022-09-27T05:25:51;47.77;;;43.37;;
3811;SDS011;1921;49.368;11.068;2022-09-27T05:28:19;48.87;;;44.27;;
3811;SDS011;1921;49.368;11.068;2022-09-27T05:30:45;47.80;;;43.40;;
3811;SDS011;1921;49.368;11.068;2022-09-27T05:33:11;48.20;;;43.70;;
3811;SDS011;1921;49.368;11.068;2022-09-27T05:35:36;48.70;;;44.10;;
3811;SDS011;1921;49.368;11.068;2022-09-27T05:38:06;48.10;;;43.60;;
3811;SDS011;1921;49.368;11.068;2022-09-27T05:40:31;50.90;;;44.10;;
3811;SDS011;1921;49.368;11.068;2022-09-27T05:42:57;48.57;;;43.97;;
3811;SDS011;1921;49.368;11.068;2022-09-27T05:45:23;48.30;;;43.80;;
3811;SDS011;1921;49.368;11.068;2022-09-27T05:47:56;48.20;;;43.70;;
3811;SDS011;1921;49.368;11.068;2022-09-27T05:50:23;48.63;;;43.93;;
3811;SDS011;1921;49.368;11.068;2022-09-27T05:52:51;49.27;;;44.43;;
3811;SDS011;1921;49.368;11.068;2022-09-27T05:55:20;57.50;;;44.27;;
3811;SDS011;1921;49.368;11.068;2022-09-27T05:58:00;48.83;;;44.13;;
3811;SDS011;1921;49.368;11.068;2022-09-27T06:00:33;49.43;;;44.63;;
3811;SDS011;1921;49.368;11.068;2022-09-27T06:03:02;48.70;;;44.10;;
3811;SDS011;1921;49.368;11.068;2022-09-27T06:05:30;48.60;;;43.97;;
3811;SDS011;1921;49.368;11.068;2022-09-27T06:08:04;48.77;;;44.17;;
3811;SDS011;1921;49.368;11.068;2022-09-27T06:10:35;49.47;;;44.57;;
3811;SDS011;1921;49.368;11.068;2022-09-27T06:15:35;48.70;;;44.10;;
3811;SDS011;1921;49.368;11.068;2022-09-27T06:18:07;49.10;;;44.17;;
3811;SDS011;1921;49.368;11.068;2022-09-27T06:20:41;49.00;;;44.30;;
3811;SDS011;1921;49.368;11.068;2022-09-27T06:23:09;48.90;;;44.30;;
3811;SDS011;1921;49.368;11.068;2022-09-27T06:25:42;48.63;;;43.83;;
3811;SDS011;1921;49.368;11.068;2022-09-27T06:28:09;48.90;;;44.30;;
3811;SDS011;1921;49.368;11.068;2022-09-27T06:30:40;49.07;;;44.37;;
3811;SDS011;1921;49.368;11.068;2022-09-27T06:33:12;49.17;;;44.47;;
3811;SDS011;1921;49.368;11.068;2022-09-27T06:35:42;49.10;;;44.40;;
3811;SDS011;1921;49.368;11.068;2022-09-27T06:38:10;49.23;;;44.23;;
3811;SDS011;1921;49.368;11.068;2022-09-27T06:40:46;49.07;;;44.17;;
3811;SDS011;1921;49.368;11.068;2022-09-27T06:43:14;48.90;;;44.30;;
3811;SDS011;1921;49.368;11.068;2022-09-27T06:45:45;48.90;;;44.10;;
3811;SDS011;1921;49.368;11.068;2022-09-27T06:48:12;48.63;;;44.00;;
3811;SDS011;1921;49.368;11.068;2022-09-27T06:50:41;48.90;;;44.30;;
3811;SDS011;1921;49.368;11.068;2022-09-27T06:53:18;48.70;;;43.90;;
3811;SDS011;1921;49.368;11.068;2022-09-27T06:55:44;48.97;;;44.27;;
3811;SDS011;1921;49.368;11.068;2022-09-27T06:58:11;48.50;;;43.90;;
3811;SDS011;1921;49.368;11.068;2022-09-27T07:00:56;49.67;;;44.87;;
3811;SDS011;1921;49.368;11.068;2022-09-27T07:03:23;49.60;;;44.80;;
3811;SDS011;1921;49.368;11.068;2022-09-27T07:06:02;49.27;;;44.57;;
3811;SDS011;1921;49.368;11.068;2022-09-27T07:08:30;48.83;;;44.23;;
3811;SDS011;1921;49.368;11.068;2022-09-27T07:11:02;49.00;;;44.30;;
3811;SDS011;1921;49.368;11.068;2022-09-27T07:13:31;48.97;;;44.37;;
3811;SDS011;1921;49.368;11.068;2022-09-27T07:16:01;48.87;;;44.17;;
3811;SDS011;1921;49.368;11.068;2022-09-27T07:18:27;49.63;;;44.53;;
3811;SDS011;1921;49.368;11.068;2022-09-27T07:20:54;49.03;;;44.33;;
3811;SDS011;1921;49.368;11.068;2022-09-27T07:23:20;48.73;;;44.13;;
3811;SDS011;1921;49.368;11.068;2022-09-27T07:25:46;50.23;;;44.80;;
3811;SDS011;1921;49.368;11.068;2022-09-27T07:28:16;48.30;;;43.70;;
3811;SDS011;1921;49.368;11.068;2022-09-27T07:30:43;49.60;;;44.50;;
3811;SDS011;1921;49.368;11.068;2022-09-27T07:33:09;49.33;;;44.63;;
3811;SDS011;1921;49.368;11.068;2022-09-27T07:35:39;48.67;;;44.07;;
3811;SDS011;1921;49.368;11.068;2022-09-27T07:38:06;48.60;;;44.00;;
3811;SDS011;1921;49.368;11.068;2022-09-27T07:40:38;48.80;;;44.10;;
3811;SDS011;1921;49.368;11.068;2022-09-27T07:43:05;48.90;;;44.20;;
3811;SDS011;1921;49.368;11.068;2022-09-27T07:45:33;49.50;;;44.70;;
3811;SDS011;1921;49.368;11.068;2022-09-27T07:47:59;49.67;;;44.80;;
3811;SDS011;1921;49.368;11.068;2022-09-27T07:50:28;49.37;;;44.57;;
3811;SDS011;1921;49.368;11.068;2022-09-27T07:52:54;49.37;;;44.57;;
3811;SDS011;1921;49.368;11.068;2022-09-27T07:55:20;49.60;;;44.67;;
3811;SDS011;1921;49.368;11.068;2022-09-27T07:57:48;49.83;;;44.83;;
3811;SDS011;1921;49.368;11.068;2022-09-27T08:00:14;50.40;;;45.30;;
3811;SDS011;1921;49.368;11.068;2022-09-27T08:02:45;50.27;;;45.17;;
3811;SDS011;1921;49.368;11.068;2022-09-27T08:05:12;50.10;;;44.90;;
3811;SDS011;1921;49.368;11.068;2022-09-27T08:07:38;49.83;;;44.83;;
3811;SDS011;1921;49.368;11.068;2022-09-27T08:10:05;50.43;;;45.33;;
3811;SDS011;1921;49.368;11.068;2022-09-27T08:12:35;50.50;;;45.40;;
3811;SDS011;1921;49.368;11.068;2022-09-27T08:15:01;50.73;;;45.53;;
3811;SDS011;1921;49.368;11.068;2022-09-27T08:17:29;50.13;;;45.03;;
3811;SDS011;1921;49.368;11.068;2022-09-27T08:19:56;49.73;;;44.73;;
3811;SDS011;1921;49.368;11.068;2022-09-27T08:22:23;50.10;;;45.07;;
3811;SDS011;1921;49.368;11.068;2022-09-27T08:24:49;50.10;;;45.10;;
3811;SDS011;1921;49.368;11.068;2022-09-27T08:27:15;50.80;;;45.50;;
3811;SDS011;1921;49.368;11.068;2022-09-27T08:29:41;50.03;;;44.93;;
3811;SDS011;1921;49.368;11.068;2022-09-27T08:32:07;50.70;;;45.50;;
3811;SDS011;1921;49.368;11.068;2022-09-27T08:34:34;50.60;;;45.50;;
3811;SDS011;1921;49.368;11.068;2022-09-27T08:37:01;50.47;;;45.33;;
3811;SDS011;1921;49.368;11.068;2022-09-27T08:39:27;50.37;;;45.27;;
3811;SDS011;1921;49.368;11.068;2022-09-27T08:47:36;50.03;;;45.03;;
3811;SDS011;1921;49.368;11.068;2022-09-27T08:50:31;50.20;;;45.20;;
3811;SDS011;1921;49.368;11.068;2022-09-27T08:55:40;49.77;;;44.77;;
3811;SDS011;1921;49.368;11.068;2022-09-27T08:58:26;49.87;;;44.90;;
3811;SDS011;1921;49.368;11.068;2022-09-27T09:01:00;50.03;;;45.03;;
3811;SDS011;1921;49.368;11.068;2022-09-27T09:03:31;49.60;;;44.70;;
3811;SDS011;1921;49.368;11.068;2022-09-27T09:17:31;49.60;;;44.70;;
3811;SDS011;1921;49.368;11.068;2022-09-27T09:20:35;49.40;;;44.60;;
3811;SDS011;1921;49.368;11.068;2022-09-27T09:31:57;49.27;;;44.43;;
3811;SDS011;1921;49.368;11.068;2022-09-27T09:34:59;59.33;;;44.90;;
3811;SDS011;1921;49.368;11.068;2022-09-27T09:37:38;50.00;;;45.00;;
3811;SDS011;1921;49.368;11.068;2022-09-27T09:46:17;49.77;;;44.87;;
3811;SDS011;1921;49.368;11.068;2022-09-27T09:51:33;50.10;;;45.10;;
3811;SDS011;1921;49.368;11.068;2022-09-27T09:56:48;49.57;;;44.63;;
3811;SDS011;1921;49.368;11.068;2022-09-27T09:59:44;49.37;;;44.57;;
3811;SDS011;1921;49.368;11.068;2022-09-27T10:02:32;49.50;;;44.70;;
3811;SDS011;1921;49.368;11.068;2022-09-27T10:05:02;49.30;;;44.50;;
3811;SDS011;1921;49.368;11.068;2022-09-27T10:07:30;49.67;;;44.87;;
3811;SDS011;1921;49.368;11.068;2022-09-27T10:10:00;49.50;;;44.67;;
3811;SDS011;1921;49.368;11.068;2022-09-27T10:12:30;48.77;;;44.07;;
3811;SDS011;1921;49.368;11.068;2022-09-27T10:14:56;49.40;;;44.60;;
3811;SDS011;1921;49.368;11.068;2022-09-27T10:17:27;49.17;;;44.37;;
3811;SDS011;1921;49.368;11.068;2022-09-27T10:20:06;49.20;;;44.40;;
3811;SDS011;1921;49.368;11.068;2022-09-27T10:22:47;49.63;;;44.73;;
3811;SDS011;1921;49.368;11.068;2022-09-27T10:25:20;49.47;;;44.67;;
3811;SDS011;1921;49.368;11.068;2022-09-27T10:27:46;49.57;;;44.70;;
3811;SDS011;1921;49.368;11.068;2022-09-27T10:32:55;50.00;;;44.90;;
3811;SDS011;1921;49.368;11.068;2022-09-27T10:35:33;50.10;;;45.10;;
3811;SDS011;1921;49.368;11.068;2022-09-27T10:40:43;49.73;;;44.73;;
3811;SDS011;1921;49.368;11.068;2022-09-27T10:48:49;50.53;;;45.33;;
3811;SDS011;1921;49.368;11.068;2022-09-27T10:52:00;50.07;;;45.00;;
3811;SDS011;1921;49.368;11.068;2022-09-27T10:54:34;50.37;;;45.33;;
3811;SDS011;1921;49.368;11.068;2022-09-27T10:57:24;50.40;;;45.40;;
3811;SDS011;1921;49.368;11.068;2022-09-27T10:59:58;50.00;;;44.90;;
3811;SDS011;1921;49.368;11.068;2022-09-27T11:03:04;49.90;;;44.90;;
3811;SDS011;1921;49.368;11.068;2022-09-27T11:05:41;49.77;;;44.87;;
3811;SDS011;1921;49.368;11.068;2022-09-27T11:10:42;49.60;;;44.60;;
3811;SDS011;1921;49.368;11.068;2022-09-27T11:13:15;49.93;;;44.93;;
3811;SDS011;1921;49.368;11.068;2022-09-27T11:21:41;51.70;;;46.30;;
3811;SDS011;1921;49.368;11.068;2022-09-27T11:24:45;51.57;;;46.07;;
3811;SDS011;1921;49.368;11.068;2022-09-27T11:27:57;51.57;;;46.00;;
3811;SDS011;1921;49.368;11.068;2022-09-27T11:30:46;51.80;;;46.20;;
3811;SDS011;1921;49.368;11.068;2022-09-27T11:50:52;51.60;;;46.20;;
3811;SDS011;1921;49.368;11.068;2022-09-27T11:57:20;52.07;;;46.57;;
3811;SDS011;1921;49.368;11.068;2022-09-27T12:06:16;50.77;;;45.57;;
3811;SDS011;1921;49.368;11.068;2022-09-27T12:14:10;50.80;;;45.60;;
3811;SDS011;1921;49.368;11.068;2022-09-27T12:16:41;51.87;;;46.53;;
3811;SDS011;1921;49.368;11.068;2022-09-27T12:19:21;50.97;;;45.67;;
3811;SDS011;1921;49.368;11.068;2022-09-27T12:21:56;51.10;;;45.87;;
3811;SDS011;1921;49.368;11.068;2022-09-27T12:24:28;50.20;;;45.10;;
3811;SDS011;1921;49.368;11.068;2022-09-27T12:26:59;50.87;;;45.67;;
3811;SDS011;1921;49.368;11.068;2022-09-27T12:29:42;50.80;;;45.60;;
3811;SDS011;1921;49.368;11.068;2022-09-27T12:34:58;49.97;;;44.87;;
3811;SDS011;1921;49.368;11.068;2022-09-27T12:37:41;50.83;;;45.63;;
3811;SDS011;1921;49.368;11.068;2022-09-27T12:42:53;50.10;;;45.10;;
3811;SDS011;1921;49.368;11.068;2022-09-27T12:45:56;50.03;;;45.07;;
3811;SDS011;1921;49.368;11.068;2022-09-27T12:52:43;50.00;;;45.03;;
3811;SDS011;1921;49.368;11.068;2022-09-27T12:58:17;49.97;;;44.97;;
3811;SDS011;1921;49.368;11.068;2022-09-27T13:09:33;51.23;;;45.93;;
3811;SDS011;1921;49.368;11.068;2022-09-27T13:12:47;51.80;;;46.40;;
3811;SDS011;1921;49.368;11.068;2022-09-27T13:15:18;52.57;;;47.07;;
3811;SDS011;1921;49.368;11.068;2022-09-27T13:17:49;52.30;;;46.70;;
3811;SDS011;1921;49.368;11.068;2022-09-27T13:22:52;52.30;;;46.80;;
3811;SDS011;1921;49.368;11.068;2022-09-27T13:25:53;52.90;;;47.30;;
3811;SDS011;1921;49.368;11.068;2022-09-27T13:30:56;53.13;;;47.43;;
3811;SDS011;1921;49.368;11.068;2022-09-27T13:33:31;52.70;;;47.10;;
3811;SDS011;1921;49.368;11.068;2022-09-27T13:44:24;51.90;;;46.40;;
3811;SDS011;1921;49.368;11.068;2022-09-27T13:50:11;51.83;;;46.43;;
3811;SDS011;1921;49.368;11.068;2022-09-27T13:52:56;51.13;;;45.83;;
3811;SDS011;1921;49.368;11.068;2022-09-27T13:55:46;51.73;;;46.23;;
3811;SDS011;1921;49.368;11.068;2022-09-27T14:04:01;51.03;;;45.80;;
3811;SDS011;1921;49.368;11.068;2022-09-27T14:06:46;50.90;;;45.67;;
3811;SDS011;1921;49.368;11.068;2022-09-27T14:09:19;51.70;;;46.20;;
3811;SDS011;1921;49.368;11.068;2022-09-27T14:11:54;51.27;;;46.00;;
3811;SDS011;1921;49.368;11.068;2022-09-27T14:14:25;51.10;;;45.90;;
3811;SDS011;1921;49.368;11.068;2022-09-27T14:16:57;50.60;;;45.43;;
3811;SDS011;1921;49.368;11.068;2022-09-27T14:19:24;50.83;;;45.63;;
3811;SDS011;1921;49.368;11.068;2022-09-27T14:21:51;51.07;;;45.77;;
3811;SDS011;1921;49.368;11.068;2022-09-27T14:29:51;50.33;;;45.23;;
3811;SDS011;1921;49.368;11.068;2022-09-27T14:32:23;50.50;;;45.30;;
3811;SDS011;1921;49.368;11.068;2022-09-27T14:38:10;50.23;;;45.13;;
3811;SDS011;1921;49.368;11.068;2022-09-27T14:40:57;50.07;;;45.07;;
3811;SDS011;1921;49.368;11.068;2022-09-27T14:43:25;50.50;;;45.40;;
3811;SDS011;1921;49.368;11.068;2022-09-27T14:45:57;50.63;;;45.50;;
3811;SDS011;1921;49.368;11.068;2022-09-27T14:48:30;50.40;;;45.30;;
3811;SDS011;1921;49.368;11.068;2022-09-27T14:53:35;51.07;;;45.87;;
3811;SDS011;1921;49.368;11.068;2022-09-27T14:56:16;51.20;;;45.90;;
3811;SDS011;1921;49.368;11.068;2022-09-27T14:58:52;51.07;;;45.77;;
3811;SDS011;1921;49.368;11.068;2022-09-27T15:01:28;51.20;;;45.90;;
3811;SDS011;1921;49.368;11.068;2022-09-27T15:03:55;51.37;;;46.10;;
3811;SDS011;1921;49.368;11.068;2022-09-27T15:06:29;51.20;;;45.90;;
3811;SDS011;1921;49.368;11.068;2022-09-27T15:08:55;51.50;;;46.20;;
3811;SDS011;1921;49.368;11.068;2022-09-27T15:11:23;50.63;;;45.43;;
3811;SDS011;1921;49.368;11.068;2022-09-27T15:13:50;51.63;;;46.13;;
3811;SDS011;1921;49.368;11.068;2022-09-27T15:16:18;51.30;;;46.00;;
3811;SDS011;1921;49.368;11.068;2022-09-27T15:18:47;51.43;;;46.10;;
3811;SDS011;1921;49.368;11.068;2022-09-27T15:21:28;51.63;;;46.23;;
3811;SDS011;1921;49.368;11.068;2022-09-27T15:23:59;52.07;;;46.67;;
3811;SDS011;1921;49.368;11.068;2022-09-27T15:26:34;52.40;;;46.83;;
3811;SDS011;1921;49.368;11.068;2022-09-27T15:29:04;51.77;;;46.37;;
3811;SDS011;1921;49.368;11.068;2022-09-27T15:31:34;51.60;;;46.20;;
3811;SDS011;1921;49.368;11.068;2022-09-27T15:34:01;51.50;;;46.20;;
3811;SDS011;1921;49.368;11.068;2022-09-27T15:36:50;51.30;;;46.03;;
3811;SDS011;1921;49.368;11.068;2022-09-27T15:39:33;51.53;;;45.90;;
3811;SDS011;1921;49.368;11.068;2022-09-27T15:52:41;50.30;;;45.20;;
3811;SDS011;1921;49.368;11.068;2022-09-27T15:55:15;49.73;;;44.83;;
3811;SDS011;1921;49.368;11.068;2022-09-27T15:58:11;50.20;;;45.20;;
3811;SDS011;1921;49.368;11.068;2022-09-27T16:00:55;49.73;;;44.83;;
3811;SDS011;1921;49.368;11.068;2022-09-27T16:03:29;49.47;;;44.57;;
3811;SDS011;1921;49.368;11.068;2022-09-27T16:05:56;49.67;;;44.77;;
3811;SDS011;1921;49.368;11.068;2022-09-27T16:08:26;50.00;;;45.10;;
3811;SDS011;1921;49.368;11.068;2022-09-27T16:10:53;50.00;;;45.10;;
3811;SDS011;1921;49.368;11.068;2022-09-27T16:13:22;51.10;;;45.50;;
3811;SDS011;1921;49.368;11.068;2022-09-27T16:15:49;50.00;;;44.90;;
3811;SDS011;1921;49.368;11.068;2022-09-27T16:18:15;50.27;;;45.27;;
3811;SDS011;1921;49.368;11.068;2022-09-27T16:20:42;49.90;;;44.93;;
3811;SDS011;1921;49.368;11.068;2022-09-27T16:23:08;49.50;;;44.63;;
3811;SDS011;1921;49.368;11.068;2022-09-27T16:25:33;49.57;;;44.70;;
3811;SDS011;1921;49.368;11.068;2022-09-27T16:27:59;49.80;;;44.90;;
3811;SDS011;1921;49.368;11.068;2022-09-27T16:30:26;50.37;;;45.17;;
3811;SDS011;1921;49.368;11.068;2022-09-27T16:32:53;50.00;;;45.10;;
3811;SDS011;1921;49.368;11.068;2022-09-27T16:35:21;50.17;;;45.17;;
3811;SDS011;1921;49.368;11.068;2022-09-27T16:37:49;49.30;;;44.50;;
3811;SDS011;1921;49.368;11.068;2022-09-27T16:40:16;50.20;;;45.20;;
3811;SDS011;1921;49.368;11.068;2022-09-27T16:42:43;49.33;;;44.50;;
3811;SDS011;1921;49.368;11.068;2022-09-27T16:45:12;49.33;;;44.53;;
3811;SDS011;1921;49.368;11.068;2022-09-27T16:47:40;49.50;;;44.70;;
3811;SDS011;1921;49.368;11.068;2022-09-27T16:50:08;49.07;;;44.27;;
3811;SDS011;1921;49.368;11.068;2022-09-27T16:52:56;49.03;;;44.33;;
3811;SDS011;1921;49.368;11.068;2022-09-27T16:55:24;49.17;;;44.47;;
3811;SDS011;1921;49.368;11.068;2022-09-27T16:57:52;49.40;;;44.70;;
3811;SDS011;1921;49.368;11.068;2022-09-27T17:00:21;49.20;;;44.50;;
3811;SDS011;1921;49.368;11.068;2022-09-27T17:02:47;49.83;;;44.70;;
3811;SDS011;1921;49.368;11.068;2022-09-27T17:05:14;49.73;;;44.83;;
3811;SDS011;1921;49.368;11.068;2022-09-27T17:07:40;49.03;;;44.37;;
3811;SDS011;1921;49.368;11.068;2022-09-27T17:10:06;48.90;;;44.20;;
3811;SDS011;1921;49.368;11.068;2022-09-27T17:12:35;49.23;;;44.53;;
3811;SDS011;1921;49.368;11.068;2022-09-27T17:15:01;49.47;;;44.77;;
3811;SDS011;1921;49.368;11.068;2022-09-27T17:17:27;49.20;;;44.40;;
3811;SDS011;1921;49.368;11.068;2022-09-27T17:19:53;49.07;;;44.40;;
3811;SDS011;1921;49.368;11.068;2022-09-27T17:22:19;49.30;;;44.57;;
3811;SDS011;1921;49.368;11.068;2022-09-27T17:24:45;49.13;;;44.43;;
3811;SDS011;1921;49.368;11.068;2022-09-27T17:27:10;49.57;;;44.77;;
3811;SDS011;1921;49.368;11.068;2022-09-27T17:29:36;49.70;;;44.70;;
3811;SDS011;1921;49.368;11.068;2022-09-27T17:32:03;48.80;;;44.20;;
3811;SDS011;1921;49.368;11.068;2022-09-27T17:34:32;48.63;;;44.03;;
3811;SDS011;1921;49.368;11.068;2022-09-27T17:37:00;48.57;;;43.97;;
3811;SDS011;1921;49.368;11.068;2022-09-27T17:39:26;48.73;;;44.13;;
3811;SDS011;1921;49.368;11.068;2022-09-27T17:41:51;48.50;;;43.90;;
3811;SDS011;1921;49.368;11.068;2022-09-27T17:44:19;48.73;;;44.13;;
3811;SDS011;1921;49.368;11.068;2022-09-27T17:46:45;48.63;;;44.03;;
3811;SDS011;1921;49.368;11.068;2022-09-27T17:49:11;48.13;;;43.63;;
3811;SDS011;1921;49.368;11.068;2022-09-27T17:51:56;48.50;;;43.90;;
3811;SDS011;1921;49.368;11.068;2022-09-27T17:54:23;48.10;;;43.60;;
3811;SDS011;1921;49.368;11.068;2022-09-27T17:56:53;48.30;;;43.80;;
3811;SDS011;1921;49.368;11.068;2022-09-27T17:59:20;48.07;;;43.67;;
3811;SDS011;1921;49.368;11.068;2022-09-27T18:01:46;48.33;;;43.73;;
3811;SDS011;1921;49.368;11.068;2022-09-27T18:04:14;48.37;;;43.87;;
3811;SDS011;1921;49.368;11.068;2022-09-27T18:06:47;48.30;;;43.60;;
3811;SDS011;1921;49.368;11.068;2022-09-27T18:09:13;48.00;;;43.60;;
3811;SDS011;1921;49.368;11.068;2022-09-27T18:11:40;47.97;;;43.57;;
3811;SDS011;1921;49.368;11.068;2022-09-27T18:14:08;48.10;;;43.60;;
3811;SDS011;1921;49.368;11.068;2022-09-27T18:16:36;48.07;;;43.60;;
3811;SDS011;1921;49.368;11.068;2022-09-27T18:19:07;48.80;;;44.30;;
3811;SDS011;1921;49.368;11.068;2022-09-27T18:21:36;48.20;;;43.80;;
3811;SDS011;1921;49.368;11.068;2022-09-27T18:24:03;48.03;;;43.53;;
3811;SDS011;1921;49.368;11.068;2022-09-27T18:26:30;47.97;;;43.57;;
3811;SDS011;1921;49.368;11.068;2022-09-27T18:29:01;47.83;;;43.43;;